createdAt,value
2022-08-04T00:02:25.373Z,6.40
2022-08-04T00:05:00.987Z,6.60
2022-08-04T00:07:53.414Z,6.20
2022-08-04T00:10:22.316Z,6.07
2022-08-04T00:12:52.043Z,6.10
2022-08-04T00:15:18.988Z,5.97
2022-08-04T00:17:49.816Z,6.40
2022-08-04T00:20:18.926Z,5.90
2022-08-04T00:22:46.827Z,5.83
2022-08-04T00:25:13.857Z,5.60
2022-08-04T00:27:40.803Z,5.53
2022-08-04T00:30:07.987Z,5.87
2022-08-04T00:32:34.946Z,5.47
2022-08-04T00:35:01.747Z,5.77
2022-08-04T00:37:28.768Z,5.23
2022-08-04T00:39:56.631Z,5.70
2022-08-04T00:42:49.490Z,5.50
2022-08-04T00:45:25.877Z,5.20
2022-08-04T00:48:15.156Z,5.20
2022-08-04T00:50:45.825Z,5.33
2022-08-04T00:53:19.891Z,5.17
2022-08-04T00:56:18.470Z,5.30
2022-08-04T00:59:04.119Z,5.20
2022-08-04T01:01:49.436Z,5.07
2022-08-04T01:04:42.426Z,5.23
2022-08-04T01:07:22.499Z,5.00
2022-08-04T01:10:15.531Z,5.10
2022-08-04T01:13:15.391Z,5.13
2022-08-04T01:16:03.312Z,5.50
2022-08-04T01:18:56.205Z,4.60
2022-08-04T01:21:56.288Z,4.50
2022-08-04T01:24:28.409Z,4.60
2022-08-04T01:27:03.917Z,4.67
2022-08-04T01:29:50.541Z,4.53
2022-08-04T01:32:25.464Z,4.97
2022-08-04T01:34:57.307Z,4.50
2022-08-04T01:37:57.313Z,4.47
2022-08-04T01:40:26.856Z,4.23
2022-08-04T01:42:53.862Z,4.50
2022-08-04T01:45:20.885Z,3.90
2022-08-04T01:47:52.146Z,4.40
2022-08-04T01:50:18.724Z,4.40
2022-08-04T01:52:50.519Z,4.27
2022-08-04T01:55:18.200Z,4.10
2022-08-04T01:57:50.056Z,4.00
2022-08-04T02:00:21.532Z,3.57
2022-08-04T02:02:49.663Z,3.70
2022-08-04T02:05:18.159Z,3.90
2022-08-04T02:08:05.329Z,3.97
2022-08-04T02:11:05.078Z,3.90
2022-08-04T02:13:53.422Z,3.63
2022-08-04T02:16:29.495Z,3.30
2022-08-04T02:19:04.484Z,4.30
2022-08-04T02:21:42.104Z,3.63
2022-08-04T02:24:14.934Z,3.87
2022-08-04T02:26:43.357Z,4.00
2022-08-04T02:29:35.690Z,4.13
2022-08-04T02:32:07.465Z,3.83
2022-08-04T02:34:45.936Z,3.67
2022-08-04T02:37:12.600Z,3.70
2022-08-04T02:39:49.203Z,3.73
2022-08-04T02:42:16.802Z,4.00
2022-08-04T02:44:43.469Z,3.97
2022-08-04T02:47:11.099Z,3.20
2022-08-04T02:49:40.568Z,3.77
2022-08-04T02:52:10.951Z,3.57
2022-08-04T02:54:45.707Z,4.13
2022-08-04T02:57:13.455Z,4.03
2022-08-04T02:59:58.447Z,3.43
2022-08-04T03:02:47.466Z,3.70
2022-08-04T03:05:18.659Z,3.70
2022-08-04T03:07:56.834Z,4.10
2022-08-04T03:10:23.313Z,3.93
2022-08-04T03:13:21.427Z,3.87
2022-08-04T03:16:06.126Z,3.47
2022-08-04T03:18:47.808Z,3.90
2022-08-04T03:21:46.132Z,3.70
2022-08-04T03:24:54.458Z,3.90
2022-08-04T03:27:37.740Z,3.80
2022-08-04T03:30:06.851Z,3.57
2022-08-04T03:32:45.612Z,3.23
2022-08-04T03:35:54.100Z,4.27
2022-08-04T03:38:29.440Z,3.83
2022-08-04T03:41:10.075Z,3.83
2022-08-04T03:43:57.752Z,4.00
2022-08-04T03:46:44.312Z,3.63
2022-08-04T03:49:40.271Z,3.87
2022-08-04T03:53:01.439Z,3.60
2022-08-04T03:55:46.201Z,3.67
2022-08-04T03:58:34.563Z,3.43
2022-08-04T04:01:45.168Z,3.70
2022-08-04T04:04:23.753Z,3.73
2022-08-04T04:07:34.145Z,3.70
2022-08-04T04:10:34.557Z,3.50
2022-08-04T04:13:16.277Z,4.27
2022-08-04T04:15:52.100Z,3.60
2022-08-04T04:18:48.899Z,4.03
2022-08-04T04:21:34.390Z,3.70
2022-08-04T04:24:36.208Z,3.70
2022-08-04T04:27:09.176Z,3.60
2022-08-04T04:30:13.198Z,3.50
2022-08-04T04:32:58.238Z,3.63
2022-08-04T04:35:34.493Z,3.40
2022-08-04T04:38:01.392Z,4.00
2022-08-04T04:40:57.000Z,3.80
2022-08-04T04:43:50.376Z,3.53
2022-08-04T04:46:39.817Z,3.73
2022-08-04T04:49:27.264Z,3.50
2022-08-04T04:52:08.968Z,4.00
2022-08-04T04:54:50.094Z,3.90
2022-08-04T04:57:19.379Z,3.50
2022-08-04T04:59:50.013Z,4.47
2022-08-04T05:02:37.332Z,3.43
2022-08-04T05:05:22.295Z,3.80
2022-08-04T05:08:43.631Z,3.63
2022-08-04T05:10:58.099Z,3.57
2022-08-04T05:14:35.657Z,4.03
2022-08-04T05:16:19.353Z,4.00
2022-08-04T05:18:50.093Z,3.73
2022-08-04T05:21:39.854Z,4.20
2022-08-04T05:24:09.621Z,3.97
2022-08-04T05:26:40.984Z,3.77
2022-08-04T05:29:10.317Z,3.97
2022-08-04T05:31:39.310Z,4.40
2022-08-04T05:34:09.623Z,3.93
2022-08-04T05:36:45.390Z,3.50
2022-08-04T05:39:16.891Z,4.10
2022-08-04T05:41:45.696Z,4.03
2022-08-04T05:44:17.086Z,3.80
2022-08-04T05:46:54.657Z,3.50
2022-08-04T05:49:24.122Z,3.63
2022-08-04T05:51:51.315Z,3.40
2022-08-04T05:54:18.870Z,3.50
2022-08-04T05:56:45.497Z,4.00
2022-08-04T05:59:12.931Z,3.23
2022-08-04T06:01:55.596Z,3.30
2022-08-04T06:04:27.175Z,3.30
2022-08-04T06:06:54.605Z,3.27
2022-08-04T06:09:21.238Z,3.13
2022-08-04T06:12:03.583Z,3.67
2022-08-04T06:14:41.585Z,3.63
2022-08-04T06:18:32.437Z,3.57
2022-08-04T06:20:17.874Z,3.60
2022-08-04T06:22:45.221Z,3.70
2022-08-04T06:25:15.510Z,3.67
2022-08-04T06:27:43.345Z,3.63
2022-08-04T06:30:14.514Z,3.93
2022-08-04T06:32:48.093Z,3.85
2022-08-04T06:35:17.860Z,3.58
2022-08-04T06:37:45.823Z,4.03
2022-08-04T06:40:31.992Z,4.22
2022-08-04T06:43:04.715Z,3.72
2022-08-04T06:45:37.107Z,3.70
2022-08-04T06:48:05.844Z,4.13
2022-08-04T06:51:25.817Z,4.03
2022-08-04T06:53:24.808Z,3.95
2022-08-04T06:55:52.122Z,4.05
2022-08-04T06:58:20.737Z,4.13
2022-08-04T07:00:48.334Z,4.38
2022-08-04T07:03:16.970Z,3.60
2022-08-04T07:05:43.776Z,4.20
2022-08-04T07:08:11.630Z,3.28
2022-08-04T07:10:39.069Z,2.90
2022-08-04T07:13:07.409Z,3.53
2022-08-04T07:15:36.236Z,3.35
2022-08-04T07:18:04.800Z,3.00
2022-08-04T07:20:36.184Z,3.45
2022-08-04T07:23:04.849Z,3.10
2022-08-04T07:25:59.491Z,2.80
2022-08-04T07:28:22.685Z,3.22
2022-08-04T07:30:49.672Z,2.97
2022-08-04T07:33:17.428Z,2.90
2022-08-04T07:36:09.598Z,2.88
2022-08-04T07:38:31.244Z,2.70
2022-08-04T07:41:00.222Z,3.10
2022-08-04T07:43:27.698Z,3.10
2022-08-04T07:45:54.417Z,3.30
2022-08-04T07:48:23.309Z,2.80
2022-08-04T07:50:50.559Z,2.90
2022-08-04T07:53:54.290Z,3.00
2022-08-04T07:56:05.110Z,2.80
2022-08-04T07:58:32.115Z,2.90
2022-08-04T08:00:59.130Z,2.22
2022-08-04T08:03:26.862Z,2.78
2022-08-04T08:05:54.754Z,2.33
2022-08-04T08:08:40.781Z,2.58
2022-08-04T08:11:08.098Z,2.83
2022-08-04T08:13:35.325Z,2.50
2022-08-04T08:16:02.764Z,2.40
2022-08-04T08:18:30.148Z,2.50
2022-08-04T08:20:57.110Z,2.20
2022-08-04T08:23:24.553Z,2.50
2022-08-04T08:25:51.853Z,2.45
2022-08-04T08:28:18.489Z,2.25
2022-08-04T08:30:45.438Z,2.40
2022-08-04T08:33:19.727Z,2.30
2022-08-04T08:36:01.956Z,2.00
2022-08-04T08:38:57.514Z,2.20
2022-08-04T08:42:06.197Z,2.08
2022-08-04T08:45:03.939Z,1.95
2022-08-04T08:48:06.120Z,2.10
2022-08-04T08:50:52.015Z,2.10
2022-08-04T08:53:47.616Z,3.50
2022-08-04T08:56:33.341Z,2.25
2022-08-04T08:59:27.785Z,2.47
2022-08-04T09:02:07.231Z,2.25
2022-08-04T09:04:48.555Z,2.13
2022-08-04T09:07:53.468Z,2.10
2022-08-04T09:10:33.107Z,2.00
2022-08-04T09:13:05.680Z,1.92
2022-08-04T09:15:33.234Z,1.80
2022-08-04T09:18:07.822Z,1.92
2022-08-04T09:20:46.932Z,1.73
2022-08-04T09:23:20.986Z,2.35
2022-08-04T09:26:29.682Z,1.80
2022-08-04T09:29:07.881Z,2.40
2022-08-04T09:31:51.409Z,2.33
2022-08-04T09:34:45.490Z,2.05
2022-08-04T09:37:29.190Z,2.20
2022-08-04T09:40:04.598Z,2.00
2022-08-04T09:42:41.772Z,2.83
2022-08-04T09:45:26.596Z,2.13
2022-08-04T09:48:00.547Z,2.80
2022-08-04T09:50:34.928Z,2.55
2022-08-04T09:54:02.498Z,2.40
2022-08-04T09:56:58.216Z,2.35
2022-08-04T09:59:30.707Z,1.85
2022-08-04T10:02:00.239Z,2.10
2022-08-04T10:04:29.592Z,2.20
2022-08-04T10:07:21.660Z,2.03
2022-08-04T10:10:10.235Z,2.70
2022-08-04T10:12:51.341Z,2.58
2022-08-04T10:15:21.347Z,2.63
2022-08-04T10:18:08.369Z,2.33
2022-08-04T10:20:55.580Z,3.00
2022-08-04T10:23:55.866Z,2.50
2022-08-04T10:26:33.369Z,2.80
2022-08-04T10:29:11.156Z,2.50
2022-08-04T10:31:44.441Z,2.45
2022-08-04T10:34:24.643Z,2.63
2022-08-04T10:37:05.047Z,2.15
2022-08-04T10:39:42.270Z,2.17
2022-08-04T10:42:18.207Z,2.22
2022-08-04T10:45:15.734Z,2.72
2022-08-04T10:48:14.253Z,2.60
2022-08-04T10:50:49.215Z,2.58
2022-08-04T10:53:21.005Z,2.53
2022-08-04T10:56:07.477Z,2.90
2022-08-04T10:58:47.763Z,2.53
2022-08-04T11:02:00.795Z,2.70
2022-08-04T11:04:31.738Z,2.97
2022-08-04T11:06:59.657Z,2.65
2022-08-04T11:09:27.167Z,2.67
2022-08-04T11:12:02.022Z,2.90
2022-08-04T11:14:38.834Z,3.08
2022-08-04T11:17:08.484Z,3.17
2022-08-04T11:19:52.776Z,3.00
2022-08-04T11:22:25.972Z,2.80
2022-08-04T11:25:05.510Z,4.00
2022-08-04T11:27:41.149Z,2.72
2022-08-04T11:30:09.707Z,3.00
2022-08-04T11:32:46.386Z,2.92
2022-08-04T11:35:19.537Z,2.70
2022-08-04T11:37:50.444Z,3.08
2022-08-04T11:40:23.465Z,3.10
2022-08-04T11:43:02.685Z,2.85
2022-08-04T11:45:37.736Z,2.70
2022-08-04T11:48:10.491Z,2.80
2022-08-04T11:50:42.342Z,3.38
2022-08-04T11:53:15.653Z,3.77
2022-08-04T11:56:09.136Z,3.13
2022-08-04T11:58:30.645Z,3.00
2022-08-04T12:01:20.044Z,2.90
2022-08-04T12:04:06.033Z,2.80
2022-08-04T12:07:30.099Z,2.70
2022-08-04T12:10:41.109Z,2.70
2022-08-04T12:13:28.637Z,2.80
2022-08-04T12:16:05.864Z,3.00
2022-08-04T12:18:40.634Z,2.50
2022-08-04T12:21:26.653Z,2.40
2022-08-04T12:24:02.554Z,2.47
2022-08-04T12:26:35.394Z,2.83
2022-08-04T12:29:10.977Z,2.70
2022-08-04T12:31:49.683Z,2.40
2022-08-04T12:34:30.927Z,2.53
2022-08-04T12:37:38.820Z,2.42
2022-08-04T12:40:28.856Z,2.70
2022-08-04T12:43:01.990Z,4.28
2022-08-04T12:45:29.509Z,2.70
2022-08-04T12:47:58.172Z,2.47
2022-08-04T12:50:25.417Z,2.28
2022-08-04T12:53:03.530Z,2.80
2022-08-04T12:55:31.867Z,2.67
2022-08-04T12:57:59.013Z,2.58
2022-08-04T13:00:40.001Z,2.65
2022-08-04T13:03:11.501Z,2.53
2022-08-04T13:05:40.866Z,2.55
2022-08-04T13:08:09.375Z,2.55
2022-08-04T13:10:45.229Z,2.80
2022-08-04T13:13:15.564Z,2.30
2022-08-04T13:15:47.489Z,2.97
2022-08-04T13:18:28.950Z,2.50
2022-08-04T13:21:22.843Z,2.55
2022-08-04T13:24:10.293Z,2.58
2022-08-04T13:26:55.305Z,2.50
2022-08-04T13:29:58.948Z,2.80
2022-08-04T13:32:11.632Z,2.33
2022-08-04T13:34:41.435Z,2.65
2022-08-04T13:37:20.869Z,2.28
2022-08-04T13:39:55.993Z,2.50
2022-08-04T13:42:24.961Z,2.50
2022-08-04T13:44:57.828Z,2.47
2022-08-04T13:47:30.916Z,2.58
2022-08-04T13:50:26.306Z,2.78
2022-08-04T13:52:54.354Z,2.30
2022-08-04T13:55:35.777Z,2.30
2022-08-04T13:58:07.635Z,2.30
2022-08-04T14:01:00.192Z,2.60
2022-08-04T14:03:54.160Z,2.40
2022-08-04T14:06:25.529Z,2.72
2022-08-04T14:08:53.666Z,2.22
2022-08-04T14:12:09.846Z,2.60
2022-08-04T14:14:26.762Z,2.45
2022-08-04T14:17:20.350Z,2.60
2022-08-04T14:19:48.573Z,2.38
2022-08-04T14:22:27.382Z,2.65
2022-08-04T14:25:16.117Z,2.38
2022-08-04T14:27:48.837Z,2.10
2022-08-04T14:30:36.288Z,2.38
2022-08-04T14:34:00.474Z,2.20
2022-08-04T14:36:01.756Z,2.60
2022-08-04T14:38:44.233Z,2.45
2022-08-04T14:41:10.897Z,2.38
2022-08-04T14:43:45.125Z,2.25
2022-08-04T14:46:12.854Z,2.20
2022-08-04T14:48:47.053Z,2.17
2022-08-04T14:51:16.196Z,2.30
2022-08-04T14:53:47.634Z,2.33
2022-08-04T14:56:37.516Z,2.28
2022-08-04T14:59:08.772Z,1.95
2022-08-04T15:01:36.771Z,2.97
2022-08-04T15:04:04.537Z,2.13
2022-08-04T15:06:33.228Z,2.28
2022-08-04T15:09:07.075Z,1.80
2022-08-04T15:11:38.942Z,2.20
2022-08-04T15:14:08.649Z,2.28
2022-08-04T15:16:55.413Z,1.95
2022-08-04T15:19:22.678Z,2.25
2022-08-04T15:21:49.672Z,1.90
2022-08-04T15:24:16.329Z,2.00
2022-08-04T15:26:48.725Z,2.10
2022-08-04T15:29:28.933Z,2.45
2022-08-04T15:32:07.864Z,1.85
2022-08-04T15:34:52.195Z,2.25
2022-08-04T15:37:27.269Z,2.13
2022-08-04T15:40:00.264Z,2.03
2022-08-04T15:43:08.776Z,2.35
2022-08-04T15:46:37.102Z,2.10
2022-08-04T15:48:35.332Z,2.17
2022-08-04T15:51:08.475Z,2.53
2022-08-04T15:54:02.841Z,1.95
2022-08-04T15:56:27.767Z,3.67
2022-08-04T15:58:55.432Z,1.92
2022-08-04T16:01:22.107Z,2.70
2022-08-04T16:03:59.912Z,2.10
2022-08-04T16:06:29.498Z,2.05
2022-08-04T16:09:01.538Z,2.30
2022-08-04T16:11:33.441Z,1.95
2022-08-04T16:14:02.052Z,2.47
2022-08-04T16:16:38.640Z,2.22
2022-08-04T16:19:06.184Z,2.08
2022-08-04T16:21:47.168Z,2.20
2022-08-04T16:24:22.324Z,2.05
2022-08-04T16:26:56.266Z,1.88
2022-08-04T16:29:23.002Z,1.98
2022-08-04T16:32:05.023Z,2.17
2022-08-04T16:34:48.458Z,2.65
2022-08-04T16:37:19.058Z,2.63
2022-08-04T16:39:50.786Z,2.13
2022-08-04T16:42:33.004Z,1.90
2022-08-04T16:45:08.273Z,2.25
2022-08-04T16:47:50.033Z,2.15
2022-08-04T16:50:18.065Z,2.25
2022-08-04T16:52:49.664Z,2.05
2022-08-04T16:55:18.158Z,2.42
2022-08-04T16:57:48.586Z,2.05
2022-08-04T17:00:15.735Z,2.00
2022-08-04T17:02:43.478Z,2.10
2022-08-04T17:05:39.727Z,2.15
2022-08-04T17:10:55.133Z,1.80
2022-08-04T17:14:03.634Z,1.93
2022-08-04T17:16:21.146Z,2.47
2022-08-04T17:18:50.202Z,2.45
2022-08-04T17:21:20.000Z,2.50
2022-08-04T17:24:12.705Z,2.20
2022-08-04T17:26:51.576Z,2.13
2022-08-04T17:29:21.570Z,2.30
2022-08-04T17:31:48.210Z,2.53
2022-08-04T17:34:16.790Z,2.23
2022-08-04T17:36:46.006Z,2.30
2022-08-04T17:39:21.429Z,1.98
2022-08-04T17:41:48.883Z,2.20
2022-08-04T17:44:16.702Z,2.30
2022-08-04T17:46:45.702Z,2.10
2022-08-04T17:49:18.611Z,2.25
2022-08-04T17:52:06.564Z,2.13
2022-08-04T17:54:39.347Z,2.10
2022-08-04T17:57:20.050Z,2.30
2022-08-04T17:59:58.507Z,2.45
2022-08-04T18:05:53.979Z,2.10
2022-08-04T18:08:39.427Z,2.60
2022-08-04T18:11:02.038Z,2.60
2022-08-04T18:13:29.223Z,2.60
2022-08-04T18:16:06.193Z,2.90
2022-08-04T18:18:41.299Z,2.60
2022-08-04T18:21:15.837Z,2.80
2022-08-04T18:23:51.083Z,2.50
2022-08-04T18:26:18.200Z,2.78
2022-08-04T18:28:50.659Z,2.22
2022-08-04T18:31:17.154Z,2.38
2022-08-04T18:33:43.815Z,2.60
2022-08-04T18:36:33.962Z,2.57
2022-08-04T18:39:07.907Z,2.58
2022-08-04T18:42:01.649Z,2.45
2022-08-04T18:44:29.140Z,2.30
2022-08-04T18:46:56.642Z,2.53
2022-08-04T18:50:58.603Z,2.97
2022-08-04T18:52:14.905Z,2.42
2022-08-04T18:54:42.139Z,2.65
2022-08-04T18:57:32.647Z,2.55
2022-08-04T18:59:55.938Z,2.28
2022-08-04T19:02:22.818Z,2.70
2022-08-04T19:04:53.215Z,2.33
2022-08-04T19:07:28.831Z,2.42
2022-08-04T19:09:59.366Z,3.15
2022-08-04T19:12:28.223Z,3.10
2022-08-04T19:14:58.795Z,2.67
2022-08-04T19:17:52.842Z,2.57
2022-08-04T19:20:25.490Z,2.40
2022-08-04T19:24:28.871Z,3.15
2022-08-04T19:26:01.115Z,2.90
2022-08-04T19:28:29.291Z,2.60
2022-08-04T19:30:58.062Z,2.73
2022-08-04T19:33:25.267Z,2.57
2022-08-04T19:35:52.589Z,2.70
2022-08-04T19:38:20.601Z,2.85
2022-08-04T19:40:50.665Z,3.70
2022-08-04T19:43:20.732Z,3.20
2022-08-04T19:45:49.694Z,2.77
2022-08-04T19:48:19.517Z,5.37
2022-08-04T19:50:46.550Z,5.10
2022-08-04T19:53:19.022Z,3.37
2022-08-04T19:55:49.793Z,2.80
2022-08-04T19:58:17.032Z,2.50
2022-08-04T20:00:44.777Z,2.97
2022-08-04T20:03:20.095Z,2.70
2022-08-04T20:05:53.860Z,2.87
2022-08-04T20:08:24.176Z,3.08
2022-08-04T20:10:51.982Z,3.10
2022-08-04T20:13:19.834Z,3.00
2022-08-04T20:15:55.454Z,2.70
2022-08-04T20:18:36.101Z,3.10
2022-08-04T20:21:19.513Z,2.43
2022-08-04T20:23:51.399Z,3.37
2022-08-04T20:26:18.135Z,2.73
2022-08-04T20:28:45.922Z,3.00
2022-08-04T20:31:18.747Z,2.87
2022-08-04T20:33:49.265Z,2.60
2022-08-04T20:36:21.957Z,3.00
2022-08-04T20:38:54.728Z,2.97
2022-08-04T20:41:22.271Z,3.20
2022-08-04T20:43:50.077Z,2.93
2022-08-04T20:46:28.588Z,2.80
2022-08-04T20:48:56.389Z,2.93
2022-08-04T20:51:31.648Z,3.00
2022-08-04T20:54:01.091Z,2.73
2022-08-04T20:56:31.283Z,3.10
2022-08-04T20:58:59.641Z,3.40
2022-08-04T21:01:27.242Z,3.30
2022-08-04T21:04:27.977Z,3.00
2022-08-04T21:06:57.386Z,2.97
2022-08-04T21:09:26.706Z,3.23
2022-08-04T21:12:05.064Z,3.23
2022-08-04T21:14:31.596Z,3.97
2022-08-04T21:16:59.290Z,3.17
2022-08-04T21:19:27.527Z,3.00
2022-08-04T21:21:54.680Z,2.70
2022-08-04T21:24:26.023Z,3.10
2022-08-04T21:26:56.581Z,3.30
2022-08-04T21:29:24.372Z,2.80
2022-08-04T21:32:07.539Z,3.07
2022-08-04T21:34:39.038Z,3.00
2022-08-04T21:37:07.152Z,3.20
2022-08-04T21:39:50.704Z,3.30
2022-08-04T21:42:29.011Z,3.40
2022-08-04T21:44:57.681Z,3.00
2022-08-04T21:47:24.358Z,3.53
2022-08-04T21:49:56.591Z,4.13
2022-08-04T21:52:24.466Z,3.70
2022-08-04T21:54:54.222Z,2.87
2022-08-04T21:57:22.765Z,3.13
2022-08-04T21:59:52.043Z,3.50
2022-08-04T22:02:18.652Z,3.40
2022-08-04T22:04:45.325Z,3.10
2022-08-04T22:07:12.287Z,3.23
2022-08-04T22:09:45.673Z,3.80
2022-08-04T22:12:27.202Z,3.73
2022-08-04T22:17:46.200Z,3.50
2022-08-04T22:20:27.628Z,3.40
2022-08-04T22:23:00.145Z,3.80
2022-08-04T22:25:33.306Z,3.20
2022-08-04T22:28:07.719Z,3.20
2022-08-04T22:30:37.460Z,3.47
2022-08-04T22:33:07.735Z,3.50
2022-08-04T22:35:43.149Z,3.43
2022-08-04T22:38:26.853Z,3.47
2022-08-04T22:41:03.472Z,3.50
2022-08-04T22:43:31.834Z,3.57
2022-08-04T22:45:59.719Z,3.43
2022-08-04T22:48:28.383Z,3.20
2022-08-04T22:50:58.820Z,3.50
2022-08-04T22:53:25.280Z,3.07
2022-08-04T22:56:06.880Z,3.13
2022-08-04T22:58:36.246Z,3.57
2022-08-04T23:01:07.536Z,3.20
2022-08-04T23:03:37.548Z,3.37
2022-08-04T23:06:07.124Z,3.53
2022-08-04T23:08:37.844Z,3.43
2022-08-04T23:11:08.169Z,3.53
2022-08-04T23:13:35.933Z,3.50
2022-08-04T23:16:10.267Z,3.83
2022-08-04T23:18:40.248Z,3.87
2022-08-04T23:21:10.218Z,4.00
2022-08-04T23:23:38.133Z,3.33
2022-08-04T23:26:13.531Z,3.63
2022-08-04T23:28:40.381Z,3.93
2022-08-04T23:31:10.319Z,3.80
2022-08-04T23:33:50.809Z,3.67
2022-08-04T23:36:29.458Z,4.00
2022-08-04T23:38:59.895Z,4.03
2022-08-04T23:41:53.767Z,3.70
2022-08-04T23:44:17.533Z,3.97
2022-08-04T23:46:51.103Z,3.80
2022-08-04T23:49:20.020Z,4.20
2022-08-04T23:51:49.666Z,4.50
2022-08-04T23:54:16.318Z,4.13
2022-08-04T23:56:52.568Z,4.10
2022-08-04T23:59:49.149Z,4.20
